createdAt,value
2023-02-11T00:01:28.463Z,-1.50
2023-02-11T00:03:55.938Z,-1.40
2023-02-11T00:06:23.170Z,-1.50
2023-02-11T00:08:50.387Z,-1.50
2023-02-11T00:11:19.411Z,-1.50
2023-02-11T00:13:46.935Z,-1.50
2023-02-11T00:16:17.858Z,-1.60
2023-02-11T00:18:45.102Z,-1.60
2023-02-11T00:21:17.823Z,-1.50
2023-02-11T00:23:45.476Z,-1.50
2023-02-11T00:26:20.319Z,-1.60
2023-02-11T00:28:48.231Z,-1.60
2023-02-11T00:31:15.811Z,-1.60
2023-02-11T00:33:43.094Z,-1.70
2023-02-11T00:36:22.456Z,-1.80
2023-02-11T00:38:50.053Z,-1.80
2023-02-11T00:41:17.542Z,-1.80
2023-02-11T00:43:44.963Z,-1.90
2023-02-11T00:46:12.520Z,-1.90
2023-02-11T00:48:39.679Z,-1.90
2023-02-11T00:51:07.085Z,-1.90
2023-02-11T00:53:34.317Z,-1.90
2023-02-11T00:56:01.677Z,-1.90
2023-02-11T00:58:28.914Z,-1.90
2023-02-11T01:00:56.315Z,-2.00
2023-02-11T01:03:24.870Z,-2.10
2023-02-11T01:05:52.232Z,-2.10
2023-02-11T01:08:19.831Z,-2.20
2023-02-11T01:10:57.981Z,-2.10
2023-02-11T01:13:25.391Z,-2.10
2023-02-11T01:15:55.285Z,-2.10
2023-02-11T01:18:22.462Z,-2.10
2023-02-11T01:20:50.791Z,-2.00
2023-02-11T01:23:17.962Z,-2.10
2023-02-11T01:25:45.501Z,-2.10
2023-02-11T01:28:20.786Z,-2.10
2023-02-11T01:30:47.976Z,-2.10
2023-02-11T01:33:15.323Z,-2.10
2023-02-11T01:35:42.566Z,-2.10
2023-02-11T01:38:18.520Z,-2.10
2023-02-11T01:41:00.343Z,-2.10
2023-02-11T01:43:29.810Z,-2.10
2023-02-11T01:46:20.662Z,-2.20
2023-02-11T01:48:55.445Z,-2.30
2023-02-11T01:51:37.828Z,-2.30
2023-02-11T01:54:24.497Z,-2.40
2023-02-11T01:57:11.553Z,-2.40
2023-02-11T02:00:17.388Z,-2.40
2023-02-11T02:03:02.485Z,-2.30
2023-02-11T02:05:43.501Z,-2.30
2023-02-11T02:08:25.162Z,-2.30
2023-02-11T02:10:56.509Z,-2.30
2023-02-11T02:13:24.378Z,-2.40
2023-02-11T02:16:09.495Z,-2.40
2023-02-11T02:19:04.750Z,-2.40
2023-02-11T02:22:31.715Z,-2.40
2023-02-11T02:25:30.847Z,-2.40
2023-02-11T02:28:19.522Z,-2.40
2023-02-11T02:31:08.310Z,-2.40
2023-02-11T02:33:55.535Z,-2.40
2023-02-11T02:36:43.498Z,-2.40
2023-02-11T02:39:22.567Z,-2.30
2023-02-11T02:41:49.820Z,-2.30
2023-02-11T02:44:17.083Z,-2.20
2023-02-11T02:46:44.466Z,-2.20
2023-02-11T02:49:13.612Z,-2.10
2023-02-11T02:52:19.343Z,-2.10
2023-02-11T02:55:37.469Z,-2.10
2023-02-11T02:58:23.005Z,-2.20
2023-02-11T03:01:13.281Z,-2.30
2023-02-11T03:04:07.922Z,-2.30
2023-02-11T03:06:58.647Z,-2.30
2023-02-11T03:09:40.226Z,-2.30
2023-02-11T03:12:07.765Z,-2.40
2023-02-11T03:14:35.327Z,-2.40
2023-02-11T03:17:04.491Z,-2.40
2023-02-11T03:19:43.441Z,-2.40
2023-02-11T03:22:33.681Z,-2.40
2023-02-11T03:25:01.480Z,-2.40
2023-02-11T03:27:47.010Z,-2.40
2023-02-11T03:30:19.156Z,-2.30
2023-02-11T03:33:08.676Z,-2.30
2023-02-11T03:35:44.038Z,-2.20
2023-02-11T03:38:33.239Z,-2.20
2023-02-11T03:41:00.688Z,-2.20
2023-02-11T03:43:38.465Z,-2.20
2023-02-11T03:46:05.685Z,-2.10
2023-02-11T03:48:39.295Z,-2.10
2023-02-11T03:51:07.636Z,-2.00
2023-02-11T03:53:34.890Z,-2.00
2023-02-11T03:56:04.929Z,-2.00
2023-02-11T03:58:32.118Z,-1.90
2023-02-11T04:00:59.321Z,-1.80
2023-02-11T04:03:26.603Z,-1.70
2023-02-11T04:05:54.271Z,-1.60
2023-02-11T04:08:21.634Z,-1.50
2023-02-11T04:10:48.741Z,-1.50
2023-02-11T04:13:15.894Z,-1.40
2023-02-11T04:15:43.054Z,-1.40
2023-02-11T04:18:10.233Z,-1.40
2023-02-11T04:20:37.373Z,-1.40
2023-02-11T04:23:05.076Z,-1.40
2023-02-11T04:25:32.226Z,-1.30
2023-02-11T04:27:59.374Z,-1.30
2023-02-11T04:30:26.550Z,-1.30
2023-02-11T04:32:54.462Z,-1.30
2023-02-11T04:35:21.699Z,-1.20
2023-02-11T04:37:48.866Z,-1.20
2023-02-11T04:40:16.134Z,-1.20
2023-02-11T04:42:43.544Z,-1.30
2023-02-11T04:45:10.701Z,-1.20
2023-02-11T04:47:38.050Z,-1.20
2023-02-11T04:50:05.545Z,-1.20
2023-02-11T04:52:32.702Z,-1.20
2023-02-11T04:54:59.824Z,-1.20
2023-02-11T04:57:27.041Z,-1.20
2023-02-11T04:59:54.201Z,-1.20
2023-02-11T05:02:21.424Z,-1.20
2023-02-11T05:04:48.597Z,-1.10
2023-02-11T05:07:15.758Z,-1.20
2023-02-11T05:09:42.903Z,-1.10
2023-02-11T05:12:10.054Z,-1.20
2023-02-11T05:14:37.217Z,-1.20
2023-02-11T05:17:04.341Z,-1.10
2023-02-11T05:19:32.080Z,-1.10
2023-02-11T05:22:03.011Z,-1.10
2023-02-11T05:24:32.385Z,-1.20
2023-02-11T05:27:00.247Z,-1.10
2023-02-11T05:29:30.345Z,-1.20
2023-02-11T05:31:59.556Z,-1.20
2023-02-11T05:34:26.673Z,-1.10
2023-02-11T05:36:53.808Z,-1.10
2023-02-11T05:39:21.004Z,-1.10
2023-02-11T05:41:48.131Z,-1.10
2023-02-11T05:44:15.313Z,-1.10
2023-02-11T05:46:42.458Z,-1.10
2023-02-11T05:49:09.630Z,-1.20
2023-02-11T05:51:36.809Z,-1.30
2023-02-11T05:54:04.006Z,-1.30
2023-02-11T05:56:31.141Z,-1.20
2023-02-11T05:58:59.955Z,-1.30
2023-02-11T06:01:27.232Z,-1.20
2023-02-11T06:03:54.979Z,-1.20
2023-02-11T06:06:22.233Z,-1.10
2023-02-11T06:08:49.357Z,-1.10
2023-02-11T06:11:16.972Z,-1.10
2023-02-11T06:13:44.227Z,-1.00
2023-02-11T06:16:11.428Z,-1.00
2023-02-11T06:18:38.747Z,-0.90
2023-02-11T06:21:10.053Z,-0.90
2023-02-11T06:23:37.610Z,-0.90
2023-02-11T06:26:06.242Z,-0.90
2023-02-11T06:28:33.591Z,-0.90
2023-02-11T06:31:06.779Z,-0.90
2023-02-11T06:33:35.238Z,-0.90
2023-02-11T06:36:03.012Z,-0.90
2023-02-11T06:38:30.175Z,-0.90
2023-02-11T06:40:57.357Z,-0.90
2023-02-11T06:43:24.495Z,-0.90
2023-02-11T06:45:54.907Z,-0.80
2023-02-11T06:48:23.093Z,-0.80
2023-02-11T06:50:50.177Z,-0.80
2023-02-11T06:53:17.275Z,-0.70
2023-02-11T06:55:44.409Z,-0.70
2023-02-11T06:58:11.551Z,-0.60
2023-02-11T07:00:38.720Z,-0.60
2023-02-11T07:03:05.985Z,-0.50
2023-02-11T07:05:36.034Z,-0.50
2023-02-11T07:08:03.247Z,-0.40
2023-02-11T07:10:30.503Z,-0.40
2023-02-11T07:12:58.838Z,-0.40
2023-02-11T07:15:26.361Z,-0.40
2023-02-11T07:17:53.479Z,-0.40
2023-02-11T07:20:20.612Z,-0.40
2023-02-11T07:22:47.738Z,-0.40
2023-02-11T07:25:14.924Z,-0.30
2023-02-11T07:27:42.084Z,-0.30
2023-02-11T07:30:10.257Z,-0.30
2023-02-11T07:32:37.409Z,-0.30
2023-02-11T07:35:05.297Z,-0.30
2023-02-11T07:37:35.003Z,-0.30
2023-02-11T07:40:02.309Z,-0.30
2023-02-11T07:42:29.490Z,-0.40
2023-02-11T07:44:56.778Z,-0.30
2023-02-11T07:47:23.917Z,-0.20
2023-02-11T07:49:51.036Z,-0.10
2023-02-11T07:52:18.245Z,0.00
2023-02-11T07:54:45.633Z,0.00
2023-02-11T07:57:12.831Z,0.10
2023-02-11T07:59:39.974Z,0.10
2023-02-11T08:02:08.539Z,0.10
2023-02-11T08:04:36.949Z,0.20
2023-02-11T08:07:36.814Z,0.20
2023-02-11T08:10:04.272Z,0.20
2023-02-11T08:12:31.411Z,0.40
2023-02-11T08:14:58.562Z,0.40
2023-02-11T08:17:25.724Z,0.50
2023-02-11T08:19:52.818Z,0.60
2023-02-11T08:22:20.005Z,0.60
2023-02-11T08:24:52.307Z,0.70
2023-02-11T08:27:19.699Z,0.70
2023-02-11T08:29:46.874Z,0.80
2023-02-11T08:32:14.121Z,0.80
2023-02-11T08:34:41.337Z,1.00
2023-02-11T08:37:09.039Z,1.10
2023-02-11T08:39:36.203Z,1.20
2023-02-11T08:42:06.521Z,1.20
2023-02-11T08:44:33.759Z,1.40
2023-02-11T08:47:00.907Z,1.40
2023-02-11T08:49:28.231Z,1.50
2023-02-11T08:52:02.259Z,1.60
2023-02-11T08:54:30.381Z,1.60
2023-02-11T08:57:09.975Z,1.60
2023-02-11T08:59:37.226Z,1.70
2023-02-11T09:02:04.397Z,1.80
2023-02-11T09:04:32.701Z,1.80
2023-02-11T09:07:00.988Z,2.00
2023-02-11T09:09:33.058Z,2.10
2023-02-11T09:12:05.710Z,2.20
2023-02-11T09:14:38.060Z,2.40
2023-02-11T09:17:05.302Z,2.40
2023-02-11T09:19:32.524Z,2.40
2023-02-11T09:21:59.777Z,2.50
2023-02-11T09:24:26.875Z,2.60
2023-02-11T09:26:54.108Z,2.60
2023-02-11T09:29:21.229Z,2.60
2023-02-11T09:31:48.564Z,2.70
2023-02-11T09:34:15.988Z,2.70
2023-02-11T09:36:43.184Z,2.70
2023-02-11T09:39:15.332Z,2.80
2023-02-11T09:42:10.596Z,2.80
2023-02-11T09:44:38.564Z,2.90
2023-02-11T09:47:35.126Z,2.90
2023-02-11T09:50:46.239Z,3.00
2023-02-11T09:53:22.283Z,2.90
2023-02-11T09:55:59.507Z,2.90
2023-02-11T09:58:35.718Z,2.90
2023-02-11T10:01:20.999Z,3.00
2023-02-11T10:04:27.878Z,3.00
2023-02-11T10:06:57.632Z,3.10
2023-02-11T10:09:50.053Z,3.00
2023-02-11T10:13:04.217Z,3.00
2023-02-11T10:16:13.538Z,3.00
2023-02-11T10:19:07.382Z,3.00
2023-02-11T10:22:03.484Z,3.00
2023-02-11T10:24:30.712Z,3.10
2023-02-11T10:26:57.830Z,3.00
2023-02-11T10:29:38.533Z,3.00
2023-02-11T10:32:38.451Z,3.00
2023-02-11T10:35:18.449Z,3.00
2023-02-11T10:37:45.813Z,3.10
2023-02-11T10:40:28.095Z,3.10
2023-02-11T10:42:59.293Z,3.20
2023-02-11T10:45:47.686Z,3.20
2023-02-11T10:48:40.705Z,3.30
2023-02-11T10:51:17.919Z,3.40
2023-02-11T10:53:46.674Z,3.30
2023-02-11T10:56:27.615Z,3.30
2023-02-11T10:59:34.361Z,3.30
2023-02-11T11:02:15.222Z,3.30
2023-02-11T11:04:45.573Z,3.30
2023-02-11T11:07:30.333Z,3.30
2023-02-11T11:10:08.795Z,3.30
2023-02-11T11:12:44.821Z,3.30
2023-02-11T11:15:26.018Z,3.40
2023-02-11T11:18:24.340Z,3.40
2023-02-11T11:21:03.227Z,3.50
2023-02-11T11:23:30.574Z,3.50
2023-02-11T11:26:13.139Z,3.50
2023-02-11T11:28:51.754Z,3.60
2023-02-11T11:31:30.063Z,3.70
2023-02-11T11:33:59.044Z,3.70
2023-02-11T11:36:38.094Z,3.80
2023-02-11T11:39:27.458Z,3.90
2023-02-11T11:41:57.589Z,3.90
2023-02-11T11:44:36.455Z,3.90
2023-02-11T11:47:12.470Z,4.00
2023-02-11T11:50:35.130Z,4.00
2023-02-11T11:53:18.794Z,4.00
2023-02-11T11:56:24.978Z,4.00
2023-02-11T11:58:53.105Z,4.00
2023-02-11T12:01:44.556Z,4.00
2023-02-11T12:04:30.194Z,4.00
2023-02-11T12:07:27.714Z,4.10
2023-02-11T12:10:48.153Z,4.00
2023-02-11T12:13:24.233Z,3.90
2023-02-11T12:16:10.290Z,3.80
2023-02-11T12:19:14.299Z,3.70
2023-02-11T12:22:02.960Z,3.70
2023-02-11T12:24:54.523Z,3.70
2023-02-11T12:27:36.724Z,3.70
2023-02-11T12:30:18.666Z,3.60
2023-02-11T12:33:31.650Z,3.60
2023-02-11T12:36:40.766Z,3.60
2023-02-11T12:39:50.355Z,3.60
2023-02-11T12:43:02.543Z,3.50
2023-02-11T12:45:49.734Z,3.40
2023-02-11T12:48:45.935Z,3.50
2023-02-11T12:52:03.784Z,3.40
2023-02-11T12:54:52.154Z,3.40
2023-02-11T12:57:26.251Z,3.30
2023-02-11T13:00:00.871Z,3.20
2023-02-11T13:03:24.401Z,3.30
2023-02-11T13:05:55.416Z,3.20
2023-02-11T13:08:41.259Z,3.20
2023-02-11T13:11:15.107Z,3.30
2023-02-11T13:13:47.051Z,3.20
2023-02-11T13:16:35.445Z,3.20
2023-02-11T13:19:18.897Z,3.30
2023-02-11T13:22:01.332Z,3.20
2023-02-11T13:24:44.384Z,3.20
2023-02-11T13:27:50.769Z,3.20
2023-02-11T13:30:34.369Z,3.20
2023-02-11T13:33:01.592Z,3.20
2023-02-11T13:35:39.009Z,3.10
2023-02-11T13:38:27.633Z,3.20
2023-02-11T13:41:19.247Z,3.10
2023-02-11T13:43:47.316Z,3.00
2023-02-11T13:46:14.963Z,3.00
2023-02-11T13:48:52.568Z,2.90
2023-02-11T13:51:37.977Z,2.90
2023-02-11T13:54:06.225Z,2.90
2023-02-11T13:56:40.536Z,2.80
2023-02-11T13:59:25.601Z,2.80
2023-02-11T14:02:48.942Z,2.70
2023-02-11T14:05:38.864Z,2.70
2023-02-11T14:08:38.980Z,2.70
2023-02-11T14:11:25.295Z,2.70
2023-02-11T14:13:52.319Z,2.80
2023-02-11T14:16:36.923Z,2.70
2023-02-11T14:19:06.221Z,2.70
2023-02-11T14:21:36.652Z,2.70
2023-02-11T14:24:07.075Z,2.70
2023-02-11T14:26:49.556Z,2.80
2023-02-11T14:29:42.194Z,2.70
2023-02-11T14:32:59.024Z,2.80
2023-02-11T14:35:48.802Z,2.80
2023-02-11T14:38:47.627Z,2.70
2023-02-11T14:41:51.131Z,2.80
2023-02-11T14:44:23.621Z,2.80
2023-02-11T14:46:53.362Z,2.70
2023-02-11T14:49:43.667Z,2.80
2023-02-11T14:52:35.218Z,2.80
2023-02-11T14:55:38.754Z,2.90
2023-02-11T14:58:20.996Z,2.90
2023-02-11T15:01:09.354Z,2.90
2023-02-11T15:03:41.575Z,2.90
2023-02-11T15:06:29.044Z,2.80
2023-02-11T15:09:06.031Z,2.80
2023-02-11T15:11:39.697Z,2.80
2023-02-11T15:15:10.887Z,2.80
2023-02-11T15:17:38.075Z,2.80
2023-02-11T15:20:25.970Z,2.80
2023-02-11T15:23:03.398Z,2.80
2023-02-11T15:25:34.707Z,2.70
2023-02-11T15:28:01.954Z,2.70
2023-02-11T15:33:50.793Z,2.80
2023-02-11T15:36:23.671Z,2.80
2023-02-11T15:39:19.704Z,2.80
2023-02-11T15:41:49.474Z,2.80
2023-02-11T15:44:32.629Z,2.80
2023-02-11T15:47:02.690Z,2.80
2023-02-11T15:53:49.672Z,2.80
2023-02-11T15:56:49.133Z,2.90
2023-02-11T15:59:38.080Z,2.80
2023-02-11T16:02:42.611Z,2.80
2023-02-11T16:05:40.007Z,2.90
2023-02-11T16:08:28.236Z,2.80
2023-02-11T16:11:03.292Z,2.80
2023-02-11T16:13:34.183Z,2.70
2023-02-11T16:16:04.524Z,2.70
2023-02-11T16:18:40.198Z,2.70
2023-02-11T16:21:15.830Z,2.70
2023-02-11T16:23:43.200Z,2.70
2023-02-11T16:26:25.412Z,2.70
2023-02-11T16:28:52.612Z,2.70
2023-02-11T16:31:19.910Z,2.60
2023-02-11T16:33:47.153Z,2.60
2023-02-11T16:36:17.274Z,2.60
2023-02-11T16:38:44.491Z,2.60
2023-02-11T16:41:12.761Z,2.60
2023-02-11T16:43:40.439Z,2.60
2023-02-11T16:46:09.244Z,2.60
2023-02-11T16:48:36.455Z,2.60
2023-02-11T16:51:03.927Z,2.60
2023-02-11T16:53:31.512Z,2.60
2023-02-11T16:56:47.244Z,2.60
2023-02-11T16:59:17.117Z,2.60
2023-02-11T17:02:14.376Z,2.60
2023-02-11T17:08:57.643Z,2.60
2023-02-11T17:11:26.359Z,2.40
2023-02-11T17:14:08.914Z,2.50
2023-02-11T17:16:38.790Z,2.50
2023-02-11T17:19:05.978Z,2.40
2023-02-11T17:21:33.343Z,2.40
2023-02-11T17:24:00.537Z,2.40
2023-02-11T17:30:18.643Z,2.50
2023-02-11T17:32:57.621Z,2.40
2023-02-11T17:35:57.579Z,2.40
2023-02-11T17:38:28.320Z,2.50
2023-02-11T17:41:12.381Z,2.40
2023-02-11T17:43:50.502Z,2.40
2023-02-11T17:49:59.594Z,2.40
2023-02-11T17:52:36.927Z,2.30
2023-02-11T17:55:23.294Z,2.30
2023-02-11T17:58:05.002Z,2.30
2023-02-11T18:00:37.299Z,2.30
2023-02-11T18:03:08.806Z,2.40
2023-02-11T18:05:36.720Z,2.30
2023-02-11T18:08:15.569Z,2.40
2023-02-11T18:11:02.252Z,2.40
2023-02-11T18:13:51.693Z,2.40
2023-02-11T18:16:39.453Z,2.40
2023-02-11T18:19:57.405Z,2.50
2023-02-11T18:23:21.937Z,2.40
2023-02-11T18:30:02.314Z,2.40
2023-02-11T18:32:29.541Z,2.30
2023-02-11T18:36:10.464Z,2.40
2023-02-11T18:42:54.969Z,2.40
2023-02-11T18:47:01.087Z,2.40
2023-02-11T18:49:19.411Z,2.40
2023-02-11T18:51:48.417Z,2.40
2023-02-11T18:54:15.645Z,2.50
2023-02-11T18:56:42.809Z,2.50
2023-02-11T18:59:09.991Z,2.50
2023-02-11T19:01:39.939Z,2.50
2023-02-11T19:04:07.258Z,2.50
2023-02-11T19:06:36.904Z,2.60
2023-02-11T19:09:07.531Z,2.60
2023-02-11T19:11:47.020Z,2.60
2023-02-11T19:14:21.741Z,2.60
2023-02-11T19:16:50.643Z,2.60
2023-02-11T19:19:20.203Z,2.60
2023-02-11T19:21:47.648Z,2.60
2023-02-11T19:24:16.224Z,2.60
2023-02-11T19:26:43.409Z,2.60
2023-02-11T19:29:10.584Z,2.60
2023-02-11T19:31:37.937Z,2.60
2023-02-11T19:34:05.554Z,2.70
2023-02-11T19:36:37.228Z,2.60
2023-02-11T19:39:11.932Z,2.70
2023-02-11T19:41:39.192Z,2.60
2023-02-11T19:44:07.795Z,2.60
2023-02-11T19:46:37.370Z,2.60
2023-02-11T19:49:04.832Z,2.60
2023-02-11T19:51:33.542Z,2.60
2023-02-11T19:54:00.790Z,2.60
2023-02-11T19:56:30.939Z,2.60
2023-02-11T19:58:58.169Z,2.60
2023-02-11T20:01:25.582Z,2.60
2023-02-11T20:03:54.179Z,2.60
2023-02-11T20:06:31.457Z,2.70
2023-02-11T20:09:01.062Z,2.70
2023-02-11T20:11:29.865Z,2.70
2023-02-11T20:13:57.203Z,2.60
2023-02-11T20:16:44.574Z,2.70
2023-02-11T20:19:20.046Z,2.70
2023-02-11T20:21:48.545Z,2.70
2023-02-11T20:24:19.058Z,2.70
2023-02-11T20:26:50.581Z,2.60
2023-02-11T20:29:17.959Z,2.70
2023-02-11T20:31:45.411Z,2.70
2023-02-11T20:34:12.918Z,2.70
2023-02-11T20:36:40.699Z,2.70
2023-02-11T20:39:08.087Z,2.70
2023-02-11T20:41:36.738Z,2.70
2023-02-11T20:44:06.285Z,2.80
2023-02-11T20:46:34.292Z,2.80
2023-02-11T20:49:01.531Z,2.80
2023-02-11T20:51:53.750Z,2.80
2023-02-11T20:54:21.262Z,2.80
2023-02-11T20:56:49.961Z,2.80
2023-02-11T20:59:18.230Z,2.80
2023-02-11T21:01:50.798Z,2.90
2023-02-11T21:04:25.715Z,2.90
2023-02-11T21:06:55.844Z,2.90
2023-02-11T21:09:25.279Z,2.90
2023-02-11T21:11:55.086Z,2.90
2023-02-11T21:14:23.116Z,2.90
2023-02-11T21:16:50.386Z,2.90
2023-02-11T21:19:17.686Z,3.00
2023-02-11T21:21:45.048Z,3.00
2023-02-11T21:24:15.320Z,3.00
2023-02-11T21:26:42.553Z,3.10
2023-02-11T21:29:09.947Z,3.10
2023-02-11T21:31:37.365Z,3.10
2023-02-11T21:34:05.437Z,3.10
2023-02-11T21:36:32.645Z,3.10
2023-02-11T21:39:01.711Z,3.10
2023-02-11T21:41:29.104Z,3.20
2023-02-11T21:43:56.870Z,3.10
2023-02-11T21:46:24.235Z,3.10
2023-02-11T21:48:51.505Z,3.10
2023-02-11T21:51:21.225Z,3.10
2023-02-11T21:53:48.594Z,3.10
2023-02-11T21:56:17.999Z,3.10
2023-02-11T21:58:45.584Z,3.20
2023-02-11T22:01:22.073Z,3.20
2023-02-11T22:03:49.445Z,3.20
2023-02-11T22:06:26.133Z,3.20
2023-02-11T22:08:57.257Z,3.20
2023-02-11T22:11:27.441Z,3.20
2023-02-11T22:14:05.384Z,3.20
2023-02-11T22:16:35.952Z,3.20
2023-02-11T22:19:10.892Z,3.10
2023-02-11T22:22:14.666Z,3.10
2023-02-11T22:24:48.238Z,3.20
2023-02-11T22:27:20.250Z,3.20
2023-02-11T22:29:49.300Z,3.20
2023-02-11T22:32:17.779Z,3.20
2023-02-11T22:34:46.050Z,3.20
2023-02-11T22:37:24.150Z,3.20
2023-02-11T22:39:51.300Z,3.20
2023-02-11T22:42:18.424Z,3.20
2023-02-11T22:44:45.740Z,3.20
2023-02-11T22:47:12.895Z,3.20
2023-02-11T22:49:41.381Z,3.30
2023-02-11T22:52:09.720Z,3.30
2023-02-11T22:54:36.836Z,3.40
2023-02-11T22:57:06.949Z,3.30
2023-02-11T22:59:37.153Z,3.30
2023-02-11T23:02:04.454Z,3.40
2023-02-11T23:04:31.608Z,3.30
2023-02-11T23:06:58.722Z,3.40
2023-02-11T23:09:25.844Z,3.40
2023-02-11T23:11:54.407Z,3.40
2023-02-11T23:14:21.622Z,3.40
2023-02-11T23:16:49.892Z,3.40
2023-02-11T23:19:17.178Z,3.40
2023-02-11T23:21:44.296Z,3.40
2023-02-11T23:24:13.488Z,3.40
2023-02-11T23:26:41.574Z,3.40
2023-02-11T23:29:09.418Z,3.40
2023-02-11T23:31:39.896Z,3.40
2023-02-11T23:34:07.843Z,3.40
2023-02-11T23:36:35.068Z,3.40
2023-02-11T23:39:02.281Z,3.40
2023-02-11T23:41:29.473Z,3.40
2023-02-11T23:43:57.569Z,3.40
2023-02-11T23:46:25.634Z,3.40
2023-02-11T23:48:53.107Z,3.40
2023-02-11T23:51:20.273Z,3.40
2023-02-11T23:53:49.233Z,3.40
2023-02-11T23:56:19.863Z,3.40
2023-02-11T23:58:51.479Z,3.40
